createdAt,value
2017-12-02T00:00:55.156Z,4.26
2017-12-02T00:03:22.673Z,4.29
2017-12-02T00:05:50.199Z,4.22
2017-12-02T00:08:17.787Z,4.18
2017-12-02T00:10:45.317Z,4.29
2017-12-02T00:13:12.823Z,4.20
2017-12-02T00:15:40.621Z,4.22
2017-12-02T00:18:08.176Z,4.19
2017-12-02T00:20:35.696Z,4.13
2017-12-02T00:23:03.270Z,3.83
2017-12-02T00:25:30.795Z,3.48
2017-12-02T00:27:58.330Z,3.71
2017-12-02T00:30:25.903Z,3.71
2017-12-02T00:32:53.449Z,3.59
2017-12-02T00:35:21.009Z,3.45
2017-12-02T00:37:48.567Z,3.41
2017-12-02T00:40:16.082Z,3.26
2017-12-02T00:42:43.607Z,3.17
2017-12-02T00:45:11.294Z,3.18
2017-12-02T00:47:38.814Z,3.04
2017-12-02T00:50:06.363Z,3.10
2017-12-02T00:52:33.924Z,3.06
2017-12-02T00:55:01.480Z,2.95
2017-12-02T00:57:29.003Z,3.22
2017-12-02T00:59:56.908Z,3.33
2017-12-02T01:02:24.466Z,3.43
2017-12-02T01:04:52.078Z,3.52
2017-12-02T01:07:19.636Z,3.51
2017-12-02T01:09:47.154Z,3.43
2017-12-02T01:12:14.703Z,3.47
2017-12-02T01:14:42.287Z,3.63
2017-12-02T01:17:09.798Z,3.51
2017-12-02T01:19:37.323Z,3.65
2017-12-02T01:22:04.942Z,3.56
2017-12-02T01:24:32.498Z,3.61
2017-12-02T01:27:00.058Z,3.62
2017-12-02T01:29:27.718Z,3.55
2017-12-02T01:31:55.231Z,3.53
2017-12-02T01:34:22.763Z,3.49
2017-12-02T01:36:50.478Z,3.36
2017-12-02T01:39:18.366Z,3.55
2017-12-02T01:41:45.906Z,3.44
2017-12-02T01:44:13.586Z,3.30
2017-12-02T01:46:41.100Z,3.38
2017-12-02T01:49:08.618Z,3.50
2017-12-02T01:51:36.468Z,3.54
2017-12-02T01:54:03.983Z,3.58
2017-12-02T01:56:31.505Z,3.59
2017-12-02T01:58:59.081Z,3.59
2017-12-02T02:01:26.603Z,3.55
2017-12-02T02:03:54.160Z,3.57
2017-12-02T02:06:21.851Z,3.49
2017-12-02T02:08:49.370Z,3.35
2017-12-02T02:11:16.894Z,3.42
2017-12-02T02:13:44.603Z,3.38
2017-12-02T02:16:12.162Z,3.41
2017-12-02T02:18:39.675Z,3.43
2017-12-02T02:21:07.484Z,3.39
2017-12-02T02:23:35.044Z,3.42
2017-12-02T02:26:02.605Z,3.42
2017-12-02T02:28:30.351Z,3.16
2017-12-02T02:30:57.876Z,3.31
2017-12-02T02:33:25.406Z,3.32
2017-12-02T02:35:52.961Z,3.22
2017-12-02T02:38:20.483Z,3.15
2017-12-02T02:40:48.010Z,2.91
2017-12-02T02:43:15.730Z,2.65
2017-12-02T02:45:43.254Z,2.75
2017-12-02T02:48:10.778Z,2.82
2017-12-02T02:50:38.327Z,2.96
2017-12-02T02:53:05.850Z,2.74
2017-12-02T02:55:33.370Z,2.70
2017-12-02T02:58:00.976Z,2.86
2017-12-02T03:00:28.534Z,2.69
2017-12-02T03:02:56.195Z,2.65
2017-12-02T03:05:23.804Z,2.57
2017-12-02T03:07:51.331Z,2.57
2017-12-02T03:10:18.874Z,2.61
2017-12-02T03:12:46.682Z,2.42
2017-12-02T03:15:14.199Z,2.31
2017-12-02T03:17:41.758Z,2.49
2017-12-02T03:20:09.704Z,2.35
2017-12-02T03:22:37.283Z,2.41
2017-12-02T03:25:04.843Z,2.36
2017-12-02T03:27:32.790Z,2.58
2017-12-02T03:30:00.307Z,2.71
2017-12-02T03:32:27.822Z,2.71
2017-12-02T03:34:55.790Z,2.68
2017-12-02T03:37:23.356Z,2.64
2017-12-02T03:39:50.914Z,2.64
2017-12-02T03:42:18.554Z,2.66
2017-12-02T03:44:46.133Z,2.64
2017-12-02T03:47:13.799Z,2.60
2017-12-02T03:49:41.661Z,2.49
2017-12-02T03:52:09.259Z,2.48
2017-12-02T03:54:36.803Z,2.52
2017-12-02T03:57:04.606Z,2.50
2017-12-02T03:59:32.205Z,2.54
2017-12-02T04:01:59.717Z,2.49
2017-12-02T04:04:27.631Z,2.42
2017-12-02T04:06:55.195Z,2.30
2017-12-02T04:09:22.750Z,2.29
2017-12-02T04:11:50.513Z,2.13
2017-12-02T04:14:18.071Z,2.10
2017-12-02T04:16:45.590Z,2.01
2017-12-02T04:19:13.191Z,1.88
2017-12-02T04:21:40.749Z,1.77
2017-12-02T04:24:08.274Z,1.69
2017-12-02T04:26:35.868Z,1.57
2017-12-02T04:29:03.385Z,1.63
2017-12-02T04:31:30.903Z,1.45
2017-12-02T04:33:58.500Z,1.28
2017-12-02T04:36:26.027Z,1.40
2017-12-02T04:38:53.560Z,1.35
2017-12-02T04:41:21.298Z,1.25
2017-12-02T04:43:49.292Z,1.09
2017-12-02T04:46:16.807Z,1.24
2017-12-02T04:48:44.355Z,1.28
2017-12-02T04:51:11.866Z,1.36
2017-12-02T04:53:39.374Z,1.42
2017-12-02T04:56:06.922Z,1.57
2017-12-02T04:58:34.443Z,1.65
2017-12-02T05:01:02.330Z,1.69
2017-12-02T05:03:29.896Z,1.78
2017-12-02T05:05:57.419Z,1.76
2017-12-02T05:08:24.990Z,1.84
2017-12-02T05:10:52.546Z,1.77
2017-12-02T05:13:20.106Z,1.70
2017-12-02T05:15:48.074Z,1.81
2017-12-02T05:18:15.818Z,1.89
2017-12-02T05:20:43.342Z,1.73
2017-12-02T05:23:10.869Z,1.45
2017-12-02T05:25:38.618Z,1.62
2017-12-02T05:28:06.136Z,1.73
2017-12-02T05:30:33.736Z,1.89
2017-12-02T05:33:01.601Z,1.85
2017-12-02T05:35:29.161Z,1.90
2017-12-02T05:37:56.720Z,1.56
2017-12-02T05:40:24.291Z,1.62
2017-12-02T05:42:51.814Z,1.58
2017-12-02T05:45:19.334Z,1.73
2017-12-02T05:47:46.905Z,1.74
2017-12-02T05:50:14.422Z,1.86
2017-12-02T05:52:41.980Z,1.68
2017-12-02T05:55:09.556Z,1.95
2017-12-02T05:57:37.078Z,1.56
2017-12-02T06:00:04.677Z,1.54
2017-12-02T06:02:32.229Z,1.61
2017-12-02T06:04:59.768Z,1.61
2017-12-02T06:07:27.326Z,1.75
2017-12-02T06:09:55.070Z,1.76
2017-12-02T06:12:22.599Z,1.68
2017-12-02T06:14:50.986Z,1.49
2017-12-02T06:17:18.705Z,1.58
2017-12-02T06:19:46.249Z,1.69
2017-12-02T06:22:13.770Z,1.68
2017-12-02T06:24:41.319Z,1.56
2017-12-02T06:27:08.852Z,1.29
2017-12-02T06:29:36.373Z,1.12
2017-12-02T06:32:04.146Z,1.37
2017-12-02T06:34:31.666Z,1.64
2017-12-02T06:36:59.199Z,1.59
2017-12-02T06:39:27.050Z,1.72
2017-12-02T06:41:54.571Z,1.31
2017-12-02T06:44:22.197Z,1.39
2017-12-02T06:46:49.777Z,1.21
2017-12-02T06:49:17.294Z,1.46
2017-12-02T06:51:44.826Z,1.35
2017-12-02T06:54:12.521Z,1.60
2017-12-02T06:56:40.037Z,1.73
2017-12-02T06:59:07.550Z,1.61
2017-12-02T07:01:35.097Z,1.53
2017-12-02T07:04:02.621Z,1.67
2017-12-02T07:06:30.142Z,1.75
2017-12-02T07:08:58.027Z,1.80
2017-12-02T07:11:25.559Z,2.01
2017-12-02T07:13:53.086Z,2.04
2017-12-02T07:16:20.742Z,1.92
2017-12-02T07:18:48.326Z,2.17
2017-12-02T07:21:15.840Z,1.64
2017-12-02T07:23:43.426Z,2.09
2017-12-02T07:26:10.942Z,1.36
2017-12-02T07:28:38.466Z,1.48
2017-12-02T07:31:06.113Z,1.41
2017-12-02T07:33:33.621Z,1.54
2017-12-02T07:36:01.147Z,1.20
2017-12-02T07:38:28.783Z,1.12
2017-12-02T07:40:56.300Z,1.25
2017-12-02T07:43:23.815Z,1.09
2017-12-02T07:45:51.519Z,1.65
2017-12-02T07:48:19.046Z,1.62
2017-12-02T07:50:46.566Z,1.72
2017-12-02T07:53:14.716Z,1.62
2017-12-02T07:55:42.252Z,2.04
2017-12-02T07:58:10.763Z,1.96
2017-12-02T08:00:38.428Z,1.87
2017-12-02T08:03:05.942Z,2.21
2017-12-02T08:05:33.500Z,2.13
2017-12-02T08:08:01.194Z,2.25
2017-12-02T08:10:28.718Z,2.06
2017-12-02T08:12:56.233Z,1.69
2017-12-02T08:15:23.938Z,1.72
2017-12-02T08:17:51.465Z,2.21
2017-12-02T08:20:19.002Z,1.87
2017-12-02T08:22:46.578Z,2.27
2017-12-02T08:25:14.150Z,2.60
2017-12-02T08:27:41.661Z,2.83
2017-12-02T08:30:09.554Z,2.65
2017-12-02T08:32:37.102Z,2.95
2017-12-02T08:35:04.688Z,2.61
2017-12-02T08:37:32.301Z,2.57
2017-12-02T08:39:59.882Z,2.93
2017-12-02T08:42:27.402Z,3.03
2017-12-02T08:44:55.309Z,3.19
2017-12-02T08:47:22.830Z,3.37
2017-12-02T08:49:50.355Z,3.55
2017-12-02T08:52:17.903Z,3.41
2017-12-02T08:54:45.475Z,3.17
2017-12-02T08:57:13.101Z,3.49
2017-12-02T08:59:40.732Z,3.71
2017-12-02T09:02:08.423Z,3.64
2017-12-02T09:04:36.067Z,3.77
2017-12-02T09:07:03.965Z,3.71
2017-12-02T09:09:31.570Z,3.89
2017-12-02T09:11:59.108Z,3.81
2017-12-02T09:14:26.939Z,3.88
2017-12-02T09:16:54.619Z,3.98
2017-12-02T09:19:22.364Z,3.81
2017-12-02T09:21:50.331Z,3.99
2017-12-02T09:24:17.905Z,3.59
2017-12-02T09:26:45.449Z,3.70
2017-12-02T09:29:13.018Z,3.94
2017-12-02T09:31:40.773Z,3.90
2017-12-02T09:34:08.327Z,4.01
2017-12-02T09:36:35.894Z,4.14
2017-12-02T09:39:03.468Z,4.19
2017-12-02T09:41:31.015Z,4.01
2017-12-02T09:43:58.899Z,4.32
2017-12-02T09:46:26.765Z,4.40
2017-12-02T09:48:54.350Z,3.74
2017-12-02T09:51:22.290Z,3.75
2017-12-02T09:53:49.828Z,3.23
2017-12-02T09:56:17.381Z,3.74
2017-12-02T09:58:44.991Z,3.64
2017-12-02T10:01:12.712Z,3.76
2017-12-02T10:03:40.496Z,3.78
2017-12-02T10:06:08.359Z,3.65
2017-12-02T10:08:35.894Z,3.72
2017-12-02T10:11:03.481Z,3.92
2017-12-02T10:13:31.082Z,4.19
2017-12-02T10:15:58.598Z,4.34
2017-12-02T10:18:26.154Z,4.26
2017-12-02T10:20:53.727Z,4.11
2017-12-02T10:23:21.362Z,4.17
2017-12-02T10:25:48.915Z,4.10
2017-12-02T10:28:16.662Z,4.25
2017-12-02T10:30:44.198Z,4.10
2017-12-02T10:33:11.902Z,4.12
2017-12-02T10:35:39.786Z,4.15
2017-12-02T10:38:07.637Z,4.28
2017-12-02T10:40:35.241Z,4.21
2017-12-02T10:43:03.133Z,4.43
2017-12-02T10:45:30.866Z,4.58
2017-12-02T10:47:58.736Z,4.56
2017-12-02T10:50:26.898Z,4.57
2017-12-02T10:52:55.624Z,4.56
2017-12-02T10:55:23.517Z,4.45
2017-12-02T10:57:51.997Z,4.63
2017-12-02T11:00:19.994Z,4.30
2017-12-02T11:02:47.882Z,4.53
2017-12-02T11:05:16.006Z,4.77
2017-12-02T11:07:43.623Z,4.52
2017-12-02T11:10:11.204Z,4.73
2017-12-02T11:12:39.292Z,4.47
2017-12-02T11:15:06.857Z,4.47
2017-12-02T11:17:34.638Z,4.50
2017-12-02T11:20:03.518Z,4.20
2017-12-02T11:22:31.135Z,4.23
2017-12-02T11:24:58.753Z,4.28
2017-12-02T11:27:26.495Z,4.43
2017-12-02T11:29:54.055Z,4.29
2017-12-02T11:32:21.573Z,4.00
2017-12-02T11:34:49.489Z,4.29
2017-12-02T11:37:17.043Z,4.15
2017-12-02T11:39:44.604Z,4.08
2017-12-02T11:42:12.350Z,4.12
2017-12-02T11:44:39.871Z,4.32
2017-12-02T11:47:07.583Z,4.55
2017-12-02T11:49:35.141Z,4.50
2017-12-02T11:52:02.704Z,4.83
2017-12-02T11:54:30.260Z,4.43
2017-12-02T11:56:57.954Z,4.72
2017-12-02T11:59:25.481Z,4.77
2017-12-02T12:01:53.039Z,5.02
2017-12-02T12:04:20.804Z,4.82
2017-12-02T12:06:48.365Z,4.85
2017-12-02T12:09:15.925Z,4.96
2017-12-02T12:11:43.622Z,4.98
2017-12-02T12:14:11.190Z,4.86
2017-12-02T12:16:38.713Z,4.93
2017-12-02T12:19:06.294Z,5.11
2017-12-02T12:21:34.082Z,5.28
2017-12-02T12:24:01.688Z,5.14
2017-12-02T12:26:29.348Z,5.15
2017-12-02T12:28:56.866Z,4.77
2017-12-02T12:31:24.741Z,5.02
2017-12-02T12:33:52.333Z,5.08
2017-12-02T12:36:19.860Z,5.17
2017-12-02T12:38:47.378Z,5.29
2017-12-02T12:41:15.094Z,5.14
2017-12-02T12:43:42.614Z,5.25
2017-12-02T12:46:10.128Z,5.44
2017-12-02T12:48:37.993Z,5.40
2017-12-02T12:51:05.552Z,5.41
2017-12-02T12:53:33.116Z,5.31
2017-12-02T12:56:00.866Z,5.18
2017-12-02T12:58:28.378Z,5.06
2017-12-02T13:00:56.108Z,5.08
2017-12-02T13:03:23.838Z,4.75
2017-12-02T13:05:51.357Z,4.98
2017-12-02T13:08:18.926Z,5.01
2017-12-02T13:10:46.539Z,5.11
2017-12-02T13:13:14.097Z,4.87
2017-12-02T13:15:41.622Z,4.79
2017-12-02T13:18:09.214Z,4.99
2017-12-02T13:20:36.978Z,4.91
2017-12-02T13:23:04.510Z,5.08
2017-12-02T13:25:32.609Z,4.94
2017-12-02T13:28:00.157Z,4.97
2017-12-02T13:30:27.674Z,5.01
2017-12-02T13:32:55.225Z,5.13
2017-12-02T13:35:23.050Z,5.12
2017-12-02T13:37:50.574Z,4.89
2017-12-02T13:40:18.460Z,5.02
2017-12-02T13:42:46.118Z,4.82
2017-12-02T13:45:13.692Z,4.93
2017-12-02T13:47:41.386Z,4.84
2017-12-02T13:50:08.920Z,5.08
2017-12-02T13:52:36.884Z,4.82
2017-12-02T13:55:04.547Z,4.93
2017-12-02T13:57:32.160Z,5.03
2017-12-02T13:59:59.662Z,4.91
2017-12-02T14:02:27.474Z,4.51
2017-12-02T14:04:55.036Z,4.76
2017-12-02T14:07:22.550Z,4.84
2017-12-02T14:09:50.244Z,4.88
2017-12-02T14:12:18.687Z,4.72
2017-12-02T14:14:46.245Z,4.87
2017-12-02T14:17:14.985Z,4.95
2017-12-02T14:19:43.825Z,5.03
2017-12-02T14:22:11.382Z,5.01
2017-12-02T14:24:39.759Z,4.97
2017-12-02T14:27:07.311Z,4.87
2017-12-02T14:29:34.979Z,4.97
2017-12-02T14:32:03.579Z,4.80
2017-12-02T14:34:31.123Z,4.93
2017-12-02T14:36:58.783Z,4.74
2017-12-02T14:39:26.447Z,4.63
2017-12-02T14:41:54.955Z,4.81
2017-12-02T14:44:22.466Z,4.65
2017-12-02T14:46:50.232Z,4.62
2017-12-02T14:49:17.759Z,4.04
2017-12-02T14:51:45.984Z,4.40
2017-12-02T14:54:14.089Z,4.61
2017-12-02T14:56:42.252Z,4.35
2017-12-02T14:59:09.817Z,4.28
2017-12-02T15:01:37.715Z,4.27
2017-12-02T15:04:05.345Z,4.29
2017-12-02T15:06:32.871Z,4.27
2017-12-02T15:09:01.590Z,4.19
2017-12-02T15:11:29.129Z,4.32
2017-12-02T15:13:56.982Z,4.31
2017-12-02T15:16:25.694Z,4.17
2017-12-02T15:18:53.534Z,4.17
2017-12-02T15:21:21.299Z,4.22
2017-12-02T15:23:49.369Z,4.00
2017-12-02T15:26:17.030Z,4.19
2017-12-02T15:28:45.726Z,4.04
2017-12-02T15:31:13.971Z,4.03
2017-12-02T15:33:41.801Z,4.03
2017-12-02T15:36:11.894Z,3.94
2017-12-02T15:38:41.203Z,3.93
2017-12-02T15:41:09.249Z,3.97
2017-12-02T15:43:37.981Z,3.93
2017-12-02T15:46:07.454Z,3.75
2017-12-02T15:48:36.022Z,3.97
2017-12-02T15:51:04.603Z,3.96
2017-12-02T15:53:32.572Z,3.97
2017-12-02T15:56:00.337Z,4.08
2017-12-02T15:58:28.099Z,4.04
2017-12-02T16:00:58.033Z,3.93
2017-12-02T16:03:25.858Z,3.80
2017-12-02T16:05:53.562Z,3.72
2017-12-02T16:08:21.236Z,3.93
2017-12-02T16:10:48.971Z,3.83
2017-12-02T16:13:17.461Z,3.54
2017-12-02T16:15:45.018Z,3.64
2017-12-02T16:18:12.615Z,3.42
2017-12-02T16:20:40.162Z,3.55
2017-12-02T16:23:07.742Z,3.82
2017-12-02T16:25:35.347Z,3.87
2017-12-02T16:28:03.009Z,3.65
2017-12-02T16:30:30.976Z,3.67
2017-12-02T16:32:58.486Z,3.73
2017-12-02T16:35:26.015Z,3.80
2017-12-02T16:37:53.565Z,3.84
2017-12-02T16:40:21.112Z,3.84
2017-12-02T16:42:48.669Z,3.80
2017-12-02T16:45:16.238Z,3.77
2017-12-02T16:47:43.782Z,3.76
2017-12-02T16:50:11.398Z,3.61
2017-12-02T16:52:39.213Z,3.72
2017-12-02T16:55:06.739Z,3.64
2017-12-02T16:57:34.282Z,3.51
2017-12-02T17:00:02.073Z,3.76
2017-12-02T17:02:29.635Z,3.75
2017-12-02T17:04:57.154Z,3.65
2017-12-02T17:07:24.775Z,3.59
2017-12-02T17:09:52.336Z,3.81
2017-12-02T17:12:19.898Z,3.65
2017-12-02T17:14:47.633Z,3.65
2017-12-02T17:17:15.214Z,3.30
2017-12-02T17:19:42.725Z,3.24
2017-12-02T17:22:10.411Z,3.27
2017-12-02T17:24:37.963Z,3.08
2017-12-02T17:27:05.548Z,3.12
2017-12-02T17:29:33.294Z,3.14
2017-12-02T17:32:00.810Z,3.29
2017-12-02T17:34:28.351Z,3.22
2017-12-02T17:36:56.010Z,3.23
2017-12-02T17:39:23.555Z,3.41
2017-12-02T17:41:51.112Z,3.15
2017-12-02T17:44:18.858Z,3.33
2017-12-02T17:46:46.435Z,3.06
2017-12-02T17:49:13.995Z,3.21
2017-12-02T17:51:41.942Z,3.21
2017-12-02T17:54:09.461Z,3.34
2017-12-02T17:56:37.036Z,3.34
2017-12-02T17:59:04.646Z,3.47
2017-12-02T18:01:32.226Z,3.47
2017-12-02T18:04:00.016Z,3.52
2017-12-02T18:06:27.951Z,3.43
2017-12-02T18:08:55.552Z,3.25
2017-12-02T18:11:23.150Z,3.42
2017-12-02T18:13:50.834Z,3.35
2017-12-02T18:16:18.477Z,3.25
2017-12-02T18:18:46.105Z,3.23
2017-12-02T18:21:13.696Z,3.44
2017-12-02T18:23:41.268Z,3.37
2017-12-02T18:26:09.651Z,3.50
2017-12-02T18:28:37.818Z,3.64
2017-12-02T18:31:05.374Z,3.56
2017-12-02T18:33:33.131Z,3.42
2017-12-02T18:36:01.425Z,3.66
2017-12-02T18:38:29.162Z,3.79
2017-12-02T18:40:56.877Z,3.75
2017-12-02T18:43:24.759Z,3.75
2017-12-02T18:45:52.752Z,3.64
2017-12-02T18:48:20.319Z,3.72
2017-12-02T18:50:48.400Z,3.68
2017-12-02T18:53:18.034Z,3.70
2017-12-02T18:55:45.570Z,3.64
2017-12-02T18:58:13.537Z,3.50
2017-12-02T19:00:41.912Z,3.64
2017-12-02T19:03:09.614Z,3.30
2017-12-02T19:05:37.815Z,3.41
2017-12-02T19:08:05.353Z,3.50
2017-12-02T19:10:32.910Z,3.57
2017-12-02T19:13:01.636Z,3.69
2017-12-02T19:15:29.390Z,3.53
2017-12-02T19:17:58.306Z,3.49
2017-12-02T19:20:27.607Z,3.41
2017-12-02T19:22:55.389Z,3.49
2017-12-02T19:25:23.647Z,3.56
2017-12-02T19:27:51.238Z,3.52
2017-12-02T19:30:18.970Z,3.46
2017-12-02T19:32:46.765Z,3.44
2017-12-02T19:35:14.599Z,3.42
2017-12-02T19:37:43.185Z,3.23
2017-12-02T19:40:11.743Z,3.36
2017-12-02T19:42:39.644Z,3.32
2017-12-02T19:45:07.499Z,3.34
2017-12-02T19:47:36.084Z,3.39
2017-12-02T19:50:04.703Z,3.31
2017-12-02T19:52:34.581Z,3.20
2017-12-02T19:55:02.196Z,3.15
2017-12-02T19:57:30.575Z,3.14
2017-12-02T19:59:58.240Z,2.94
2017-12-02T20:02:26.273Z,3.12
2017-12-02T20:04:54.442Z,3.01
2017-12-02T20:07:22.901Z,3.16
2017-12-02T20:09:51.488Z,3.13
2017-12-02T20:12:20.699Z,2.99
2017-12-02T20:14:48.624Z,3.18
2017-12-02T20:17:16.517Z,3.04
2017-12-02T20:19:45.310Z,2.97
2017-12-02T20:22:13.076Z,3.02
2017-12-02T20:24:42.121Z,3.15
2017-12-02T20:27:10.444Z,3.19
2017-12-02T20:29:38.311Z,2.66
2017-12-02T20:32:06.028Z,2.80
2017-12-02T20:34:34.178Z,2.92
2017-12-02T20:37:01.910Z,3.11
2017-12-02T20:39:29.572Z,3.00
2017-12-02T20:41:57.659Z,3.03
2017-12-02T20:44:25.718Z,3.08
2017-12-02T20:46:53.589Z,3.08
2017-12-02T20:49:21.671Z,3.09
2017-12-02T20:51:49.516Z,3.12
2017-12-02T20:54:18.370Z,3.14
2017-12-02T20:56:46.274Z,3.21
2017-12-02T20:59:14.847Z,3.28
2017-12-02T21:01:42.638Z,3.14
2017-12-02T21:04:10.654Z,3.09
2017-12-02T21:06:38.456Z,3.13
2017-12-02T21:09:06.300Z,3.16
2017-12-02T21:11:34.780Z,3.23
2017-12-02T21:14:02.822Z,3.03
2017-12-02T21:16:30.639Z,2.89
2017-12-02T21:18:58.317Z,3.11
2017-12-02T21:21:26.085Z,3.08
2017-12-02T21:23:53.930Z,3.20
2017-12-02T21:26:21.898Z,3.28
2017-12-02T21:28:49.572Z,3.20
2017-12-02T21:31:17.307Z,3.37
2017-12-02T21:33:46.126Z,3.36
2017-12-02T21:36:14.839Z,3.17
2017-12-02T21:38:42.460Z,3.24
2017-12-02T21:41:10.098Z,3.06
2017-12-02T21:43:37.884Z,3.06
2017-12-02T21:46:05.653Z,3.16
2017-12-02T21:48:33.498Z,3.04
2017-12-02T21:51:01.074Z,2.93
2017-12-02T21:53:28.838Z,2.99
2017-12-02T21:55:56.501Z,2.93
2017-12-02T21:58:24.468Z,3.00
2017-12-02T22:00:52.027Z,3.04
2017-12-02T22:03:19.985Z,2.97
2017-12-02T22:05:47.623Z,3.06
2017-12-02T22:08:15.320Z,2.95
2017-12-02T22:10:43.087Z,2.99
2017-12-02T22:13:10.862Z,3.12
2017-12-02T22:15:38.620Z,3.05
2017-12-02T22:18:06.376Z,3.21
2017-12-02T22:20:34.549Z,3.28
2017-12-02T22:23:02.117Z,3.21
2017-12-02T22:25:29.871Z,3.21
2017-12-02T22:27:57.652Z,3.35
2017-12-02T22:30:25.502Z,3.05
2017-12-02T22:32:53.730Z,2.81
2017-12-02T22:35:21.295Z,3.10
2017-12-02T22:37:50.227Z,3.08
2017-12-02T22:40:18.016Z,2.98
2017-12-02T22:42:45.980Z,3.22
2017-12-02T22:45:13.929Z,3.12
2017-12-02T22:47:41.684Z,3.15
2017-12-02T22:50:09.473Z,3.12
2017-12-02T22:52:38.664Z,3.10
2017-12-02T22:55:07.449Z,3.14
2017-12-02T22:57:36.129Z,3.20
2017-12-02T23:00:03.718Z,3.26
2017-12-02T23:02:31.624Z,3.14
2017-12-02T23:04:59.438Z,3.10
2017-12-02T23:07:27.734Z,3.19
2017-12-02T23:09:55.483Z,3.21
2017-12-02T23:12:23.058Z,3.17
2017-12-02T23:14:50.592Z,3.27
2017-12-02T23:17:18.427Z,3.20
2017-12-02T23:19:46.942Z,3.32
2017-12-02T23:22:14.572Z,3.20
2017-12-02T23:24:43.359Z,3.29
2017-12-02T23:27:11.868Z,3.08
2017-12-02T23:29:40.446Z,3.15
2017-12-02T23:32:08.049Z,3.22
2017-12-02T23:34:35.730Z,3.15
2017-12-02T23:37:03.343Z,3.03
2017-12-02T23:39:31.271Z,3.19
2017-12-02T23:41:58.782Z,3.18
2017-12-02T23:44:26.333Z,3.22
2017-12-02T23:46:54.171Z,3.27
2017-12-02T23:49:21.765Z,3.28
2017-12-02T23:51:49.301Z,3.12
2017-12-02T23:54:17.054Z,3.14
2017-12-02T23:56:44.613Z,3.13
2017-12-02T23:59:12.194Z,3.00
